createdAt,value
2022-11-19T00:01:10.618Z,29.02
2022-11-19T00:03:38.896Z,30.00
2022-11-19T00:06:12.324Z,27.73
2022-11-19T00:08:39.920Z,29.55
2022-11-19T00:11:41.182Z,27.10
2022-11-19T00:14:09.549Z,29.40
2022-11-19T00:16:36.568Z,28.13
2022-11-19T00:19:04.027Z,26.05
2022-11-19T00:21:30.761Z,31.25
2022-11-19T00:23:57.788Z,30.13
2022-11-19T00:26:24.529Z,29.45
2022-11-19T00:28:51.220Z,29.38
2022-11-19T00:31:18.563Z,32.20
2022-11-19T00:33:45.830Z,31.02
2022-11-19T00:36:15.400Z,31.27
2022-11-19T00:41:09.493Z,30.13
2022-11-19T00:43:49.401Z,29.48
2022-11-19T00:46:20.514Z,29.45
2022-11-19T00:48:49.034Z,31.38
2022-11-19T00:51:17.218Z,30.23
2022-11-19T00:53:44.152Z,31.77
2022-11-19T00:56:13.980Z,30.15
2022-11-19T00:58:41.697Z,30.20
2022-11-19T01:01:09.741Z,30.20
2022-11-19T01:03:37.127Z,32.67
2022-11-19T01:06:04.148Z,29.77
2022-11-19T01:08:30.833Z,29.40
2022-11-19T01:11:05.409Z,31.23
2022-11-19T01:13:34.850Z,30.58
2022-11-19T01:16:08.097Z,30.38
2022-11-19T01:18:36.332Z,32.60
2022-11-19T01:21:05.401Z,31.30
2022-11-19T01:23:33.384Z,29.95
2022-11-19T01:26:00.823Z,31.88
2022-11-19T01:28:28.035Z,30.70
2022-11-19T01:30:54.721Z,29.60
2022-11-19T01:33:22.580Z,29.65
2022-11-19T01:36:00.237Z,31.40
2022-11-19T01:38:28.155Z,29.75
2022-11-19T01:40:55.880Z,30.77
2022-11-19T01:43:43.443Z,28.95
2022-11-19T01:46:12.751Z,29.65
2022-11-19T01:48:44.772Z,31.13
2022-11-19T01:51:14.429Z,29.35
2022-11-19T01:56:09.159Z,28.58
2022-11-19T01:58:39.770Z,29.48
2022-11-19T02:01:08.092Z,29.48
2022-11-19T02:03:36.489Z,30.58
2022-11-19T03:24:58.949Z,24.65
2022-11-19T03:28:19.587Z,27.33
2022-11-19T03:31:14.040Z,26.00
2022-11-19T03:40:19.590Z,26.38
2022-11-19T03:45:49.913Z,24.63
2022-11-19T03:48:20.390Z,27.77
2022-11-19T03:50:49.845Z,25.83
2022-11-19T03:53:17.957Z,25.13
2022-11-19T03:55:51.442Z,24.75
2022-11-19T03:58:18.081Z,24.25
2022-11-19T04:00:44.808Z,22.42
2022-11-19T04:03:11.396Z,24.45
2022-11-19T04:05:37.992Z,24.40
2022-11-19T04:08:04.877Z,25.20
2022-11-19T04:10:31.619Z,22.00
2022-11-19T04:12:58.139Z,23.67
2022-11-19T04:15:24.983Z,24.05
2022-11-19T04:17:51.687Z,23.58
2022-11-19T04:20:18.394Z,25.67
2022-11-19T04:22:45.076Z,22.60
2022-11-19T04:25:11.807Z,23.95
2022-11-19T04:27:38.363Z,24.05
2022-11-19T04:30:05.455Z,24.25
2022-11-19T04:32:32.041Z,24.88
2022-11-19T04:34:58.713Z,23.15
2022-11-19T04:37:25.315Z,22.48
2022-11-19T04:39:52.062Z,22.95
2022-11-19T04:42:18.728Z,22.33
2022-11-19T04:44:45.416Z,21.75
2022-11-19T04:47:12.228Z,21.52
2022-11-19T04:49:38.839Z,20.92
2022-11-19T04:52:05.580Z,22.25
2022-11-19T04:54:32.397Z,21.05
2022-11-19T04:56:59.139Z,18.70
2022-11-19T04:59:25.798Z,20.67
2022-11-19T05:01:52.748Z,20.92
2022-11-19T05:04:19.653Z,18.98
2022-11-19T05:06:46.239Z,18.85
2022-11-19T05:09:12.813Z,18.38
2022-11-19T05:11:39.415Z,18.05
2022-11-19T05:14:05.988Z,18.45
2022-11-19T05:16:32.532Z,15.93
2022-11-19T05:18:59.131Z,17.23
2022-11-19T05:21:25.831Z,16.48
2022-11-19T05:23:52.388Z,16.55
2022-11-19T05:26:19.045Z,16.13
2022-11-19T05:28:46.232Z,14.55
2022-11-19T05:31:12.825Z,16.23
2022-11-19T05:33:39.421Z,15.73
2022-11-19T05:36:06.535Z,15.32
2022-11-19T05:38:33.148Z,15.43
2022-11-19T05:40:59.723Z,14.57
2022-11-19T05:43:27.080Z,13.63
2022-11-19T05:45:53.732Z,14.38
2022-11-19T05:48:20.322Z,14.02
2022-11-19T05:50:46.903Z,13.65
2022-11-19T05:53:13.473Z,14.98
2022-11-19T05:55:40.144Z,13.50
2022-11-19T05:58:06.713Z,13.43
2022-11-19T06:00:33.358Z,13.60
2022-11-19T06:02:59.998Z,13.05
2022-11-19T06:05:26.855Z,11.88
2022-11-19T06:07:53.366Z,12.57
2022-11-19T06:10:20.000Z,12.93
2022-11-19T06:12:46.671Z,11.63
2022-11-19T06:15:14.257Z,10.65
2022-11-19T06:17:41.100Z,11.18
2022-11-19T06:20:10.971Z,11.75
2022-11-19T06:22:38.593Z,11.60
2022-11-19T06:25:05.975Z,12.35
2022-11-19T06:27:32.615Z,9.32
2022-11-19T06:29:59.248Z,11.38
2022-11-19T06:32:25.931Z,10.57
2022-11-19T06:34:52.485Z,10.27
2022-11-19T06:37:19.047Z,10.57
2022-11-19T06:39:45.604Z,10.27
2022-11-19T06:42:30.671Z,10.90
2022-11-19T06:44:57.276Z,11.45
2022-11-19T06:47:23.851Z,9.43
2022-11-19T06:49:50.488Z,10.93
2022-11-19T06:52:17.240Z,10.80
2022-11-19T06:54:43.982Z,11.38
2022-11-19T06:57:10.638Z,10.60
2022-11-19T06:59:39.043Z,11.27
2022-11-19T07:02:06.454Z,11.40
2022-11-19T07:04:34.580Z,10.77
2022-11-19T07:07:01.817Z,11.00
2022-11-19T07:09:30.811Z,11.45
2022-11-19T07:11:57.607Z,11.57
2022-11-19T07:14:24.237Z,11.60
2022-11-19T07:16:50.892Z,12.13
2022-11-19T07:19:17.827Z,12.05
2022-11-19T07:21:44.771Z,11.10
2022-11-19T07:24:11.519Z,11.98
2022-11-19T07:26:38.266Z,13.50
2022-11-19T07:29:07.632Z,11.77
2022-11-19T07:31:34.603Z,14.35
2022-11-19T07:34:01.294Z,13.57
2022-11-19T07:36:28.067Z,14.10
2022-11-19T07:38:54.685Z,15.18
2022-11-19T07:41:39.983Z,13.60
2022-11-19T07:44:06.790Z,13.60
2022-11-19T07:46:33.362Z,13.85
2022-11-19T07:49:00.377Z,17.05
2022-11-19T07:51:27.596Z,15.07
2022-11-19T07:53:55.682Z,17.45
2022-11-19T07:56:23.005Z,17.35
2022-11-19T07:58:49.893Z,14.95
2022-11-19T08:01:19.597Z,13.43
2022-11-19T08:03:52.048Z,14.20
2022-11-19T08:06:24.007Z,14.30
2022-11-19T08:08:50.710Z,11.85
2022-11-19T08:11:17.993Z,12.70
2022-11-19T08:13:44.644Z,15.48
2022-11-19T08:16:13.542Z,12.45
2022-11-19T08:18:40.192Z,12.80
2022-11-19T08:21:09.996Z,14.25
2022-11-19T08:23:38.599Z,13.70
2022-11-19T08:26:08.855Z,13.57
2022-11-19T08:28:35.371Z,12.85
2022-11-19T08:31:06.857Z,12.05
2022-11-19T08:33:34.033Z,12.23
2022-11-19T08:36:00.767Z,12.73
2022-11-19T08:38:27.470Z,13.02
2022-11-19T08:41:14.825Z,13.27
2022-11-19T08:43:41.978Z,12.40
2022-11-19T08:46:09.347Z,14.85
2022-11-19T08:48:36.161Z,12.40
2022-11-19T08:51:07.824Z,13.20
2022-11-19T08:53:34.488Z,14.55
2022-11-19T08:56:01.332Z,12.23
2022-11-19T08:58:28.015Z,11.98
2022-11-19T09:00:55.410Z,12.90
2022-11-19T09:03:21.989Z,12.93
2022-11-19T09:05:48.661Z,11.77
2022-11-19T09:08:15.229Z,11.65
2022-11-19T09:10:41.851Z,11.00
2022-11-19T09:13:08.507Z,10.82
2022-11-19T09:15:35.728Z,11.50
2022-11-19T09:18:02.329Z,12.20
2022-11-19T09:20:28.879Z,10.18
2022-11-19T09:22:55.453Z,11.90
2022-11-19T09:25:22.051Z,12.68
2022-11-19T09:27:48.644Z,12.05
2022-11-19T09:30:15.275Z,10.80
2022-11-19T09:32:41.883Z,11.02
2022-11-19T09:35:08.640Z,11.35
2022-11-19T09:37:36.250Z,12.95
2022-11-19T09:40:04.681Z,12.35
2022-11-19T09:42:31.229Z,11.38
2022-11-19T09:45:10.008Z,9.75
2022-11-19T09:47:48.682Z,9.77
2022-11-19T09:50:15.273Z,10.02
2022-11-19T09:52:50.869Z,9.98
2022-11-19T09:55:29.363Z,9.77
2022-11-19T09:57:58.037Z,9.40
2022-11-19T10:00:31.139Z,7.93
2022-11-19T10:03:01.259Z,9.95
2022-11-19T10:05:36.870Z,11.05
2022-11-19T10:08:12.357Z,8.13
2022-11-19T10:11:03.589Z,9.02
2022-11-19T10:13:47.374Z,9.48
2022-11-19T10:16:33.564Z,10.90
2022-11-19T10:19:21.611Z,8.38
2022-11-19T10:22:07.037Z,11.93
2022-11-19T10:24:49.158Z,8.00
2022-11-19T10:27:36.236Z,8.00
2022-11-19T10:30:06.798Z,7.28
2022-11-19T10:32:41.008Z,7.72
2022-11-19T10:35:15.435Z,8.02
2022-11-19T10:37:58.357Z,7.70
2022-11-19T10:40:30.117Z,7.07
2022-11-19T10:43:25.939Z,6.38
2022-11-19T10:45:53.514Z,6.45
2022-11-19T10:48:39.946Z,6.80
2022-11-19T10:51:21.700Z,7.20
2022-11-19T10:53:49.513Z,6.53
2022-11-19T10:56:22.915Z,5.72
2022-11-19T10:58:57.429Z,5.40
2022-11-19T11:01:34.302Z,5.70
2022-11-19T11:04:19.507Z,5.28
2022-11-19T11:07:03.920Z,5.65
2022-11-19T11:09:42.805Z,5.80
2022-11-19T11:12:44.088Z,5.47
2022-11-19T11:15:26.861Z,5.18
2022-11-19T11:18:09.118Z,5.43
2022-11-19T11:20:37.737Z,5.55
2022-11-19T11:23:15.141Z,5.15
2022-11-19T11:26:03.835Z,5.43
2022-11-19T11:28:30.752Z,4.83
2022-11-19T11:31:06.364Z,5.38
2022-11-19T11:33:48.687Z,5.70
2022-11-19T11:36:19.705Z,4.63
2022-11-19T11:38:49.316Z,4.70
2022-11-19T11:44:19.903Z,5.20
2022-11-19T11:46:50.258Z,5.07
2022-11-19T11:49:26.261Z,5.03
2022-11-19T11:52:09.727Z,5.07
2022-11-19T11:54:43.454Z,4.85
2022-11-19T11:57:18.786Z,5.13
2022-11-19T11:59:51.618Z,4.22
2022-11-19T12:02:37.613Z,4.35
2022-11-19T12:05:13.506Z,5.00
2022-11-19T12:08:10.066Z,4.97
2022-11-19T12:11:23.777Z,4.55
2022-11-19T12:14:11.267Z,5.05
2022-11-19T12:17:02.782Z,4.57
2022-11-19T12:19:56.277Z,4.90
2022-11-19T12:22:42.707Z,4.45
2022-11-19T12:25:21.102Z,4.90
2022-11-19T12:28:00.861Z,4.38
2022-11-19T12:30:39.087Z,4.50
2022-11-19T12:33:26.995Z,5.82
2022-11-19T12:36:16.924Z,4.45
2022-11-19T12:38:53.886Z,7.00
2022-11-19T12:41:39.161Z,5.55
2022-11-19T12:44:23.985Z,9.93
2022-11-19T12:47:22.553Z,8.02
2022-11-19T12:50:04.598Z,7.05
2022-11-19T12:52:58.138Z,8.05
2022-11-19T12:55:27.873Z,6.07
2022-11-19T13:00:52.387Z,6.88
2022-11-19T13:03:30.205Z,5.60
2022-11-19T13:05:59.693Z,5.55
2022-11-19T13:08:41.577Z,5.63
2022-11-19T13:11:32.207Z,6.25
2022-11-19T13:14:11.481Z,8.48
2022-11-19T13:16:42.187Z,6.47
2022-11-19T13:19:19.766Z,5.93
2022-11-19T13:21:54.178Z,6.22
2022-11-19T13:24:32.820Z,5.80
2022-11-19T13:27:06.707Z,5.57
2022-11-19T13:30:06.866Z,6.22
2022-11-19T13:32:43.802Z,8.02
2022-11-19T13:35:17.715Z,5.78
2022-11-19T13:37:59.314Z,5.50
2022-11-19T13:40:37.375Z,5.28
2022-11-19T13:43:38.516Z,5.97
2022-11-19T13:46:16.756Z,7.47
2022-11-19T13:49:19.551Z,5.65
2022-11-19T13:51:50.951Z,8.57
2022-11-19T13:54:34.327Z,6.82
2022-11-19T13:57:02.033Z,7.57
2022-11-19T13:59:39.414Z,7.25
2022-11-19T14:02:15.693Z,9.07
2022-11-19T14:05:02.193Z,8.85
2022-11-19T14:07:35.658Z,6.00
2022-11-19T14:10:41.384Z,8.25
2022-11-19T14:13:39.620Z,6.93
2022-11-19T14:16:37.381Z,6.43
2022-11-19T14:19:24.640Z,8.80
2022-11-19T14:22:13.408Z,6.32
2022-11-19T14:24:58.696Z,8.32
2022-11-19T14:27:26.514Z,8.90
2022-11-19T14:30:04.621Z,6.43
2022-11-19T14:32:47.729Z,10.50
2022-11-19T14:35:23.700Z,7.25
2022-11-19T14:37:56.812Z,7.50
2022-11-19T14:40:35.039Z,7.18
2022-11-19T14:43:21.365Z,7.47
2022-11-19T14:46:06.435Z,7.05
2022-11-19T14:48:47.184Z,6.30
2022-11-19T14:51:17.744Z,5.82
2022-11-19T14:54:00.984Z,6.78
2022-11-19T14:56:28.055Z,5.20
2022-11-19T14:59:02.453Z,5.18
2022-11-19T15:01:29.311Z,5.45
2022-11-19T15:04:00.971Z,5.20
2022-11-19T15:06:28.615Z,14.75
2022-11-19T15:09:01.934Z,8.73
2022-11-19T15:12:01.563Z,15.05
2022-11-19T15:14:34.357Z,10.38
2022-11-19T15:17:06.689Z,8.90
2022-11-19T15:20:00.121Z,5.43
2022-11-19T15:22:44.396Z,4.75
2022-11-19T15:25:44.522Z,5.60
2022-11-19T15:28:17.329Z,5.30
2022-11-19T15:31:11.160Z,5.35
2022-11-19T15:33:51.165Z,6.18
2022-11-19T15:36:52.371Z,5.60
2022-11-19T15:39:34.526Z,5.88
2022-11-19T15:42:06.636Z,6.28
2022-11-19T15:44:36.361Z,6.78
2022-11-19T15:47:13.766Z,5.43
2022-11-19T15:49:42.901Z,5.65
2022-11-19T15:52:26.482Z,6.60
2022-11-19T15:55:10.625Z,5.82
2022-11-19T15:57:43.085Z,6.07
2022-11-19T16:00:17.569Z,6.13
2022-11-19T16:02:46.802Z,6.75
2022-11-19T16:05:29.699Z,7.45
2022-11-19T16:07:59.847Z,7.05
2022-11-19T16:10:39.955Z,9.52
2022-11-19T16:13:51.492Z,10.25
2022-11-19T16:16:46.552Z,10.68
2022-11-19T16:19:15.401Z,13.52
2022-11-19T16:21:47.648Z,13.30
2022-11-19T16:24:36.422Z,14.93
2022-11-19T16:27:04.829Z,16.70
2022-11-19T16:29:36.156Z,19.55
2022-11-19T16:32:04.655Z,21.52
2022-11-19T16:34:36.840Z,21.02
2022-11-19T16:37:03.794Z,21.05
2022-11-19T16:39:32.232Z,23.48
2022-11-19T16:42:19.906Z,21.60
2022-11-19T16:44:54.798Z,25.88
2022-11-19T16:47:24.433Z,25.30
2022-11-19T16:52:50.395Z,23.27
2022-11-19T16:55:20.016Z,26.02
2022-11-19T17:00:23.618Z,25.60
2022-11-19T17:02:51.356Z,26.88
2022-11-19T17:05:24.707Z,26.02
2022-11-19T17:07:53.864Z,29.02
2022-11-19T17:10:31.193Z,27.65
2022-11-19T17:13:33.510Z,25.52
2022-11-19T17:16:18.270Z,26.80
2022-11-19T17:18:45.061Z,23.23
2022-11-19T17:21:30.258Z,23.13
2022-11-19T17:23:57.251Z,23.85
2022-11-19T17:26:27.496Z,22.90
2022-11-19T17:29:07.196Z,26.00
2022-11-19T17:34:42.495Z,24.58
2022-11-19T17:37:09.451Z,30.33
2022-11-19T17:39:36.074Z,24.80
2022-11-19T17:42:22.332Z,22.02
2022-11-19T17:44:49.140Z,21.88
2022-11-19T17:47:24.484Z,24.60
2022-11-19T17:49:52.363Z,24.73
2022-11-19T17:52:30.423Z,28.55
2022-11-19T17:55:02.719Z,31.30
2022-11-19T17:57:29.334Z,28.50
2022-11-19T17:59:56.031Z,26.60
2022-11-19T18:02:22.859Z,26.95
2022-11-19T18:04:49.714Z,28.83
2022-11-19T18:07:16.437Z,29.58
2022-11-19T18:09:43.050Z,30.30
2022-11-19T18:12:15.974Z,31.50
2022-11-19T18:14:43.209Z,30.50
2022-11-19T18:17:14.558Z,31.42
2022-11-19T18:19:41.638Z,30.50
2022-11-19T18:22:17.216Z,27.30
2022-11-19T18:24:45.713Z,26.70
2022-11-19T18:27:12.424Z,29.00
2022-11-19T18:29:39.172Z,24.63
2022-11-19T18:32:05.901Z,21.90
2022-11-19T18:34:32.507Z,21.98
2022-11-19T18:36:59.115Z,22.48
2022-11-19T18:39:25.896Z,19.27
2022-11-19T18:41:52.484Z,19.98
2022-11-19T18:44:34.309Z,26.02
2022-11-19T18:47:12.690Z,24.73
2022-11-19T18:49:39.539Z,22.20
2022-11-19T18:52:08.299Z,20.17
2022-11-19T18:54:35.383Z,20.85
2022-11-19T18:57:02.540Z,17.77
2022-11-19T18:59:30.118Z,20.30
2022-11-19T19:01:56.852Z,18.73
2022-11-19T19:04:24.210Z,21.05
2022-11-19T19:06:51.210Z,21.60
2022-11-19T19:09:21.204Z,20.63
2022-11-19T19:12:13.142Z,19.98
2022-11-19T19:14:40.338Z,18.63
2022-11-19T19:17:06.968Z,18.42
2022-11-19T19:19:33.708Z,17.73
2022-11-19T19:22:00.524Z,16.65
2022-11-19T19:24:27.400Z,18.10
2022-11-19T19:26:54.087Z,18.52
2022-11-19T19:29:21.497Z,17.23
2022-11-19T19:31:48.478Z,17.20
2022-11-19T19:34:15.489Z,17.65
2022-11-19T19:36:47.671Z,17.50
2022-11-19T19:39:32.455Z,16.75
2022-11-19T19:41:59.039Z,16.08
2022-11-19T19:44:25.637Z,15.07
2022-11-19T19:46:52.286Z,15.93
2022-11-19T19:49:20.095Z,16.25
2022-11-19T19:51:47.420Z,15.93
2022-11-19T19:54:16.651Z,15.93
2022-11-19T19:56:46.099Z,16.52
2022-11-19T19:59:13.850Z,16.90
2022-11-19T20:01:45.311Z,17.50
2022-11-19T20:04:12.099Z,16.88
2022-11-19T20:06:46.187Z,16.92
2022-11-19T20:09:13.432Z,16.30
2022-11-19T20:11:40.128Z,17.20
2022-11-19T20:14:07.507Z,16.48
2022-11-19T20:16:34.999Z,16.42
2022-11-19T20:19:02.061Z,16.38
2022-11-19T20:21:33.723Z,19.95
2022-11-19T20:24:00.404Z,23.30
2022-11-19T20:26:29.544Z,26.15
2022-11-19T20:28:56.855Z,22.45
2022-11-19T20:31:24.304Z,21.67
2022-11-19T20:33:55.234Z,20.00
2022-11-19T20:36:24.474Z,20.98
2022-11-19T20:38:51.812Z,22.17
2022-11-19T20:41:37.785Z,24.33
2022-11-19T20:44:22.132Z,24.35
2022-11-19T20:47:07.324Z,22.85
2022-11-19T20:49:38.143Z,22.42
2022-11-19T20:52:06.336Z,21.73
2022-11-19T20:54:33.779Z,21.98
2022-11-19T20:57:00.843Z,21.30
2022-11-19T20:59:28.425Z,20.23
2022-11-19T21:01:57.062Z,19.55
2022-11-19T21:04:25.447Z,20.17
2022-11-19T21:06:54.028Z,19.70
2022-11-19T21:09:21.913Z,18.58
2022-11-19T21:11:49.977Z,22.23
2022-11-19T21:14:16.649Z,22.52
2022-11-19T21:16:45.899Z,21.38
2022-11-19T21:19:12.780Z,23.10
2022-11-19T21:21:39.461Z,21.75
2022-11-19T21:24:07.101Z,22.27
2022-11-19T21:26:34.220Z,22.83
2022-11-19T21:29:00.924Z,22.45
2022-11-19T21:31:41.395Z,20.55
2022-11-19T21:34:10.411Z,21.50
2022-11-19T21:36:37.959Z,21.55
2022-11-19T21:39:06.028Z,21.17
2022-11-19T21:41:34.293Z,21.10
2022-11-19T21:44:04.447Z,20.30
2022-11-19T21:46:31.416Z,20.85
2022-11-19T21:48:58.160Z,18.40
2022-11-19T21:51:25.445Z,16.23
2022-11-19T21:53:58.833Z,14.73
2022-11-19T21:56:26.897Z,13.43
2022-11-19T21:58:53.649Z,14.15
2022-11-19T22:01:20.645Z,12.27
2022-11-19T22:03:47.761Z,12.60
2022-11-19T22:06:14.885Z,13.52
2022-11-19T22:08:42.895Z,13.88
2022-11-19T22:11:28.838Z,14.32
2022-11-19T22:13:59.559Z,13.70
2022-11-19T22:16:27.126Z,14.80
2022-11-19T22:18:54.036Z,14.77
2022-11-19T22:21:20.844Z,15.50
2022-11-19T22:23:47.806Z,15.00
2022-11-19T22:26:15.542Z,16.70
2022-11-19T22:28:42.474Z,17.02
2022-11-19T22:31:09.510Z,15.95
2022-11-19T22:33:38.744Z,15.23
2022-11-19T22:36:10.202Z,16.73
2022-11-19T22:38:38.708Z,14.70
2022-11-19T22:41:10.331Z,16.08
2022-11-19T22:43:38.119Z,16.50
2022-11-19T22:46:05.503Z,15.88
2022-11-19T22:48:33.218Z,16.67
2022-11-19T22:51:05.261Z,16.55
2022-11-19T22:53:34.418Z,15.55
2022-11-19T22:56:03.181Z,16.40
2022-11-19T22:58:29.910Z,16.92
2022-11-19T23:00:57.155Z,16.35
2022-11-19T23:03:23.971Z,17.15
2022-11-19T23:05:52.049Z,16.40
2022-11-19T23:08:18.698Z,17.58
2022-11-19T23:10:45.778Z,18.02
2022-11-19T23:13:33.297Z,18.33
2022-11-19T23:16:13.629Z,17.17
2022-11-19T23:18:42.108Z,18.00
2022-11-19T23:21:12.081Z,18.88
2022-11-19T23:23:39.241Z,18.88
2022-11-19T23:26:08.064Z,21.63
2022-11-19T23:28:36.193Z,23.10
2022-11-19T23:31:08.981Z,22.25
2022-11-19T23:33:35.981Z,21.38
2022-11-19T23:36:05.061Z,21.67
2022-11-19T23:38:31.961Z,20.95
2022-11-19T23:41:02.860Z,20.83
2022-11-19T23:43:29.774Z,20.00
2022-11-19T23:46:04.752Z,20.30
2022-11-19T23:48:32.621Z,18.13
2022-11-19T23:51:04.152Z,18.30
2022-11-19T23:53:30.998Z,22.50
2022-11-19T23:55:57.886Z,23.20
2022-11-19T23:58:24.675Z,21.85
